sensor_id;sensor_type;location;lat;lon;timestamp;temperature;humidity
22645;DHT22;11489;50.834;6.752;2022-11-23T00:02:05;8.70;92.10
22645;DHT22;11489;50.834;6.752;2022-11-23T00:04:34;8.70;92.10
22645;DHT22;11489;50.834;6.752;2022-11-23T00:07:00;8.80;92.10
22645;DHT22;11489;50.834;6.752;2022-11-23T00:09:25;8.80;92.10
22645;DHT22;11489;50.834;6.752;2022-11-23T00:11:51;8.80;92.00
22645;DHT22;11489;50.834;6.752;2022-11-23T00:14:16;8.90;92.10
22645;DHT22;11489;50.834;6.752;2022-11-23T00:16:42;8.90;92.00
22645;DHT22;11489;50.834;6.752;2022-11-23T00:19:08;9.00;92.00
22645;DHT22;11489;50.834;6.752;2022-11-23T00:21:34;9.00;92.00
22645;DHT22;11489;50.834;6.752;2022-11-23T00:24:00;9.00;91.90
22645;DHT22;11489;50.834;6.752;2022-11-23T00:26:26;9.10;91.90
22645;DHT22;11489;50.834;6.752;2022-11-23T00:28:51;9.10;91.90
22645;DHT22;11489;50.834;6.752;2022-11-23T00:31:18;9.10;91.90
22645;DHT22;11489;50.834;6.752;2022-11-23T00:33:52;9.10;91.90
22645;DHT22;11489;50.834;6.752;2022-11-23T00:36:19;9.20;91.90
22645;DHT22;11489;50.834;6.752;2022-11-23T00:38:54;9.20;91.90
22645;DHT22;11489;50.834;6.752;2022-11-23T00:41:22;9.20;91.80
22645;DHT22;11489;50.834;6.752;2022-11-23T00:43:48;9.20;91.80
22645;DHT22;11489;50.834;6.752;2022-11-23T00:46:16;9.20;91.80
22645;DHT22;11489;50.834;6.752;2022-11-23T00:48:43;9.30;91.80
22645;DHT22;11489;50.834;6.752;2022-11-23T00:51:12;9.20;91.80
22645;DHT22;11489;50.834;6.752;2022-11-23T00:53:38;9.30;91.80
22645;DHT22;11489;50.834;6.752;2022-11-23T00:56:04;9.30;91.70
22645;DHT22;11489;50.834;6.752;2022-11-23T00:58:30;9.30;91.70
22645;DHT22;11489;50.834;6.752;2022-11-23T01:01:10;9.30;91.70
22645;DHT22;11489;50.834;6.752;2022-11-23T01:03:38;9.30;91.50
22645;DHT22;11489;50.834;6.752;2022-11-23T01:06:06;9.40;91.70
22645;DHT22;11489;50.834;6.752;2022-11-23T01:08:32;9.30;91.70
22645;DHT22;11489;50.834;6.752;2022-11-23T01:11:04;9.30;91.60
22645;DHT22;11489;50.834;6.752;2022-11-23T01:13:30;9.30;91.60
22645;DHT22;11489;50.834;6.752;2022-11-23T01:15:56;9.30;91.60
22645;DHT22;11489;50.834;6.752;2022-11-23T01:18:21;9.30;91.60
22645;DHT22;11489;50.834;6.752;2022-11-23T01:20:47;9.40;91.60
22645;DHT22;11489;50.834;6.752;2022-11-23T01:23:13;9.30;91.60
22645;DHT22;11489;50.834;6.752;2022-11-23T01:25:38;9.30;91.50
22645;DHT22;11489;50.834;6.752;2022-11-23T01:28:04;9.30;91.50
22645;DHT22;11489;50.834;6.752;2022-11-23T01:30:30;9.30;91.40
22645;DHT22;11489;50.834;6.752;2022-11-23T01:32:56;9.30;91.40
22645;DHT22;11489;50.834;6.752;2022-11-23T01:35:21;9.30;91.50
22645;DHT22;11489;50.834;6.752;2022-11-23T01:37:47;9.20;91.40
22645;DHT22;11489;50.834;6.752;2022-11-23T01:40:13;9.20;91.40
22645;DHT22;11489;50.834;6.752;2022-11-23T01:42:59;9.20;91.50
22645;DHT22;11489;50.834;6.752;2022-11-23T01:48:05;9.10;91.40
22645;DHT22;11489;50.834;6.752;2022-11-23T01:50:32;9.10;91.90
22645;DHT22;11489;50.834;6.752;2022-11-23T01:52:58;9.20;91.60
22645;DHT22;11489;50.834;6.752;2022-11-23T01:55:24;9.20;91.70
22645;DHT22;11489;50.834;6.752;2022-11-23T01:57:51;9.10;91.60
22645;DHT22;11489;50.834;6.752;2022-11-23T02:00:17;9.10;91.60
22645;DHT22;11489;50.834;6.752;2022-11-23T02:02:46;9.10;91.60
22645;DHT22;11489;50.834;6.752;2022-11-23T02:05:17;9.10;91.60
22645;DHT22;11489;50.834;6.752;2022-11-23T02:07:45;9.10;91.60
22645;DHT22;11489;50.834;6.752;2022-11-23T02:10:12;9.10;91.60
22645;DHT22;11489;50.834;6.752;2022-11-23T02:12:38;9.10;91.60
22645;DHT22;11489;50.834;6.752;2022-11-23T02:15:04;9.10;91.60
22645;DHT22;11489;50.834;6.752;2022-11-23T02:17:29;9.10;91.60
22645;DHT22;11489;50.834;6.752;2022-11-23T02:20:05;9.10;91.60
22645;DHT22;11489;50.834;6.752;2022-11-23T02:25:40;9.10;91.40
22645;DHT22;11489;50.834;6.752;2022-11-23T02:28:28;9.10;91.40
22645;DHT22;11489;50.834;6.752;2022-11-23T02:30:55;9.10;91.60
22645;DHT22;11489;50.834;6.752;2022-11-23T02:33:21;9.00;91.50
22645;DHT22;11489;50.834;6.752;2022-11-23T02:35:48;9.10;91.50
22645;DHT22;11489;50.834;6.752;2022-11-23T02:38:15;9.10;91.60
22645;DHT22;11489;50.834;6.752;2022-11-23T02:40:42;9.10;91.50
22645;DHT22;11489;50.834;6.752;2022-11-23T02:43:08;9.00;91.50
22645;DHT22;11489;50.834;6.752;2022-11-23T02:45:45;9.00;91.60
22645;DHT22;11489;50.834;6.752;2022-11-23T02:48:12;9.00;91.40
22645;DHT22;11489;50.834;6.752;2022-11-23T02:50:38;9.00;91.60
22645;DHT22;11489;50.834;6.752;2022-11-23T02:53:04;9.00;91.60
22645;DHT22;11489;50.834;6.752;2022-11-23T02:55:29;9.00;91.60
22645;DHT22;11489;50.834;6.752;2022-11-23T02:57:55;9.00;91.60
22645;DHT22;11489;50.834;6.752;2022-11-23T03:00:20;9.00;91.60
22645;DHT22;11489;50.834;6.752;2022-11-23T03:02:46;9.00;91.60
22645;DHT22;11489;50.834;6.752;2022-11-23T03:05:12;9.00;91.60
22645;DHT22;11489;50.834;6.752;2022-11-23T03:07:37;9.10;91.60
22645;DHT22;11489;50.834;6.752;2022-11-23T03:10:04;9.10;91.60
22645;DHT22;11489;50.834;6.752;2022-11-23T03:12:29;9.00;91.60
22645;DHT22;11489;50.834;6.752;2022-11-23T03:14:55;9.10;91.60
22645;DHT22;11489;50.834;6.752;2022-11-23T03:17:21;9.10;91.60
22645;DHT22;11489;50.834;6.752;2022-11-23T03:19:46;9.00;91.60
22645;DHT22;11489;50.834;6.752;2022-11-23T03:22:12;9.00;91.60
22645;DHT22;11489;50.834;6.752;2022-11-23T03:24:38;9.00;91.60
22645;DHT22;11489;50.834;6.752;2022-11-23T03:27:03;9.00;91.50
22645;DHT22;11489;50.834;6.752;2022-11-23T03:29:29;9.00;91.50
22645;DHT22;11489;50.834;6.752;2022-11-23T03:31:55;9.00;91.50
22645;DHT22;11489;50.834;6.752;2022-11-23T03:34:21;9.00;91.50
22645;DHT22;11489;50.834;6.752;2022-11-23T03:36:47;9.00;91.50
22645;DHT22;11489;50.834;6.752;2022-11-23T03:39:12;9.00;91.50
22645;DHT22;11489;50.834;6.752;2022-11-23T03:41:38;8.90;91.40
22645;DHT22;11489;50.834;6.752;2022-11-23T03:44:04;8.90;91.40
22645;DHT22;11489;50.834;6.752;2022-11-23T03:46:29;8.90;91.40
22645;DHT22;11489;50.834;6.752;2022-11-23T03:53:58;8.80;91.40
22645;DHT22;11489;50.834;6.752;2022-11-23T03:56:24;8.80;91.40
22645;DHT22;11489;50.834;6.752;2022-11-23T03:58:49;8.80;91.40
22645;DHT22;11489;50.834;6.752;2022-11-23T04:01:15;8.80;91.40
22645;DHT22;11489;50.834;6.752;2022-11-23T04:03:41;8.80;91.40
22645;DHT22;11489;50.834;6.752;2022-11-23T04:06:06;8.70;91.40
22645;DHT22;11489;50.834;6.752;2022-11-23T04:08:32;8.70;91.40
22645;DHT22;11489;50.834;6.752;2022-11-23T04:10:58;8.70;91.40
22645;DHT22;11489;50.834;6.752;2022-11-23T04:13:24;8.70;91.40
22645;DHT22;11489;50.834;6.752;2022-11-23T04:15:49;8.70;91.40
22645;DHT22;11489;50.834;6.752;2022-11-23T04:18:15;8.70;91.50
22645;DHT22;11489;50.834;6.752;2022-11-23T04:20:41;8.60;91.50
22645;DHT22;11489;50.834;6.752;2022-11-23T04:23:06;8.60;91.50
22645;DHT22;11489;50.834;6.752;2022-11-23T04:25:32;8.60;91.50
22645;DHT22;11489;50.834;6.752;2022-11-23T04:27:58;8.60;91.50
22645;DHT22;11489;50.834;6.752;2022-11-23T04:30:23;8.60;91.50
22645;DHT22;11489;50.834;6.752;2022-11-23T04:32:49;8.60;91.50
22645;DHT22;11489;50.834;6.752;2022-11-23T04:35:15;8.60;91.50
22645;DHT22;11489;50.834;6.752;2022-11-23T04:37:40;8.60;91.50
22645;DHT22;11489;50.834;6.752;2022-11-23T04:40:07;8.60;91.50
22645;DHT22;11489;50.834;6.752;2022-11-23T04:42:32;8.60;91.60
22645;DHT22;11489;50.834;6.752;2022-11-23T04:44:58;8.60;91.60
22645;DHT22;11489;50.834;6.752;2022-11-23T04:47:24;8.60;91.60
22645;DHT22;11489;50.834;6.752;2022-11-23T04:49:50;8.60;91.60
22645;DHT22;11489;50.834;6.752;2022-11-23T04:52:16;8.60;91.70
22645;DHT22;11489;50.834;6.752;2022-11-23T04:54:41;8.60;91.60
22645;DHT22;11489;50.834;6.752;2022-11-23T04:57:08;8.60;91.60
22645;DHT22;11489;50.834;6.752;2022-11-23T04:59:33;8.60;91.60
22645;DHT22;11489;50.834;6.752;2022-11-23T05:01:59;8.60;91.60
22645;DHT22;11489;50.834;6.752;2022-11-23T05:04:25;8.60;91.70
22645;DHT22;11489;50.834;6.752;2022-11-23T05:06:51;8.60;91.60
22645;DHT22;11489;50.834;6.752;2022-11-23T05:09:16;8.60;91.60
22645;DHT22;11489;50.834;6.752;2022-11-23T05:11:42;8.60;91.70
22645;DHT22;11489;50.834;6.752;2022-11-23T05:14:08;8.60;91.70
22645;DHT22;11489;50.834;6.752;2022-11-23T05:16:34;8.60;91.60
22645;DHT22;11489;50.834;6.752;2022-11-23T05:18:59;8.60;91.60
22645;DHT22;11489;50.834;6.752;2022-11-23T05:21:25;8.60;91.60
22645;DHT22;11489;50.834;6.752;2022-11-23T05:23:51;8.60;91.60
22645;DHT22;11489;50.834;6.752;2022-11-23T05:26:16;8.60;91.60
22645;DHT22;11489;50.834;6.752;2022-11-23T05:28:42;8.60;91.60
22645;DHT22;11489;50.834;6.752;2022-11-23T05:31:08;8.60;91.60
22645;DHT22;11489;50.834;6.752;2022-11-23T05:33:34;8.60;91.60
22645;DHT22;11489;50.834;6.752;2022-11-23T05:36:00;8.60;91.60
22645;DHT22;11489;50.834;6.752;2022-11-23T05:38:26;8.60;91.60
22645;DHT22;11489;50.834;6.752;2022-11-23T05:40:52;8.60;91.60
22645;DHT22;11489;50.834;6.752;2022-11-23T05:43:17;8.60;91.60
22645;DHT22;11489;50.834;6.752;2022-11-23T05:45:43;8.60;91.60
22645;DHT22;11489;50.834;6.752;2022-11-23T05:48:09;8.60;91.60
22645;DHT22;11489;50.834;6.752;2022-11-23T05:50:35;8.60;91.60
22645;DHT22;11489;50.834;6.752;2022-11-23T05:53:00;8.60;91.60
22645;DHT22;11489;50.834;6.752;2022-11-23T05:55:26;8.60;91.60
22645;DHT22;11489;50.834;6.752;2022-11-23T05:57:52;8.60;91.60
22645;DHT22;11489;50.834;6.752;2022-11-23T06:00:18;8.60;91.60
22645;DHT22;11489;50.834;6.752;2022-11-23T06:02:43;8.60;91.60
22645;DHT22;11489;50.834;6.752;2022-11-23T06:05:09;8.60;91.60
22645;DHT22;11489;50.834;6.752;2022-11-23T06:07:35;8.60;91.60
22645;DHT22;11489;50.834;6.752;2022-11-23T06:10:02;8.60;91.50
22645;DHT22;11489;50.834;6.752;2022-11-23T06:12:28;8.60;91.60
22645;DHT22;11489;50.834;6.752;2022-11-23T06:14:54;8.60;91.60
22645;DHT22;11489;50.834;6.752;2022-11-23T06:17:19;8.60;91.60
22645;DHT22;11489;50.834;6.752;2022-11-23T06:19:45;8.60;91.50
22645;DHT22;11489;50.834;6.752;2022-11-23T06:22:11;8.70;91.60
22645;DHT22;11489;50.834;6.752;2022-11-23T06:24:37;8.70;91.60
22645;DHT22;11489;50.834;6.752;2022-11-23T06:27:03;8.70;91.60
22645;DHT22;11489;50.834;6.752;2022-11-23T06:29:28;8.70;91.60
22645;DHT22;11489;50.834;6.752;2022-11-23T06:31:54;8.70;91.60
22645;DHT22;11489;50.834;6.752;2022-11-23T06:34:20;8.80;91.60
22645;DHT22;11489;50.834;6.752;2022-11-23T06:36:45;8.80;91.60
22645;DHT22;11489;50.834;6.752;2022-11-23T06:39:11;8.80;91.60
22645;DHT22;11489;50.834;6.752;2022-11-23T06:41:37;8.80;91.60
22645;DHT22;11489;50.834;6.752;2022-11-23T06:44:04;8.80;91.50
22645;DHT22;11489;50.834;6.752;2022-11-23T06:46:30;8.90;91.50
22645;DHT22;11489;50.834;6.752;2022-11-23T06:48:55;8.90;91.40
22645;DHT22;11489;50.834;6.752;2022-11-23T06:51:21;8.90;91.30
22645;DHT22;11489;50.834;6.752;2022-11-23T06:53:47;8.90;91.20
22645;DHT22;11489;50.834;6.752;2022-11-23T06:56:12;8.80;91.00
22645;DHT22;11489;50.834;6.752;2022-11-23T06:58:38;8.80;90.80
22645;DHT22;11489;50.834;6.752;2022-11-23T07:01:06;8.70;90.60
22645;DHT22;11489;50.834;6.752;2022-11-23T07:03:32;8.70;90.40
22645;DHT22;11489;50.834;6.752;2022-11-23T07:05:57;8.60;90.40
22645;DHT22;11489;50.834;6.752;2022-11-23T07:08:23;8.50;90.30
22645;DHT22;11489;50.834;6.752;2022-11-23T07:10:49;8.40;90.30
22645;DHT22;11489;50.834;6.752;2022-11-23T07:13:15;8.30;90.30
22645;DHT22;11489;50.834;6.752;2022-11-23T07:15:41;8.20;90.40
22645;DHT22;11489;50.834;6.752;2022-11-23T07:18:08;8.10;90.40
22645;DHT22;11489;50.834;6.752;2022-11-23T07:20:36;8.00;90.50
22645;DHT22;11489;50.834;6.752;2022-11-23T07:23:13;8.00;90.90
22645;DHT22;11489;50.834;6.752;2022-11-23T07:25:39;7.90;90.60
22645;DHT22;11489;50.834;6.752;2022-11-23T07:28:06;7.80;90.70
22645;DHT22;11489;50.834;6.752;2022-11-23T07:30:33;7.80;90.90
22645;DHT22;11489;50.834;6.752;2022-11-23T07:33:00;7.70;90.90
22645;DHT22;11489;50.834;6.752;2022-11-23T07:35:26;7.70;91.00
22645;DHT22;11489;50.834;6.752;2022-11-23T07:37:52;7.70;91.00
22645;DHT22;11489;50.834;6.752;2022-11-23T07:40:17;7.60;91.00
22645;DHT22;11489;50.834;6.752;2022-11-23T07:42:43;7.60;91.10
22645;DHT22;11489;50.834;6.752;2022-11-23T07:45:09;7.60;91.20
22645;DHT22;11489;50.834;6.752;2022-11-23T07:47:35;7.60;91.30
22645;DHT22;11489;50.834;6.752;2022-11-23T07:50:01;7.60;91.30
22645;DHT22;11489;50.834;6.752;2022-11-23T07:52:27;7.60;91.40
22645;DHT22;11489;50.834;6.752;2022-11-23T07:54:53;7.60;91.50
22645;DHT22;11489;50.834;6.752;2022-11-23T07:57:19;7.50;91.50
22645;DHT22;11489;50.834;6.752;2022-11-23T07:59:44;7.60;91.60
22645;DHT22;11489;50.834;6.752;2022-11-23T08:02:13;7.60;91.70
22645;DHT22;11489;50.834;6.752;2022-11-23T08:04:39;7.60;91.70
22645;DHT22;11489;50.834;6.752;2022-11-23T08:07:05;7.70;91.80
22645;DHT22;11489;50.834;6.752;2022-11-23T08:09:31;7.70;91.80
22645;DHT22;11489;50.834;6.752;2022-11-23T08:11:57;7.70;91.80
22645;DHT22;11489;50.834;6.752;2022-11-23T08:14:22;7.80;91.90
22645;DHT22;11489;50.834;6.752;2022-11-23T08:16:49;7.80;91.80
22645;DHT22;11489;50.834;6.752;2022-11-23T08:19:17;7.90;91.90
22645;DHT22;11489;50.834;6.752;2022-11-23T08:21:44;8.00;91.90
22645;DHT22;11489;50.834;6.752;2022-11-23T08:24:10;8.00;91.90
22645;DHT22;11489;50.834;6.752;2022-11-23T08:26:36;8.10;91.90
22645;DHT22;11489;50.834;6.752;2022-11-23T08:29:02;8.10;91.80
22645;DHT22;11489;50.834;6.752;2022-11-23T08:31:28;8.10;91.80
22645;DHT22;11489;50.834;6.752;2022-11-23T08:33:54;8.20;91.80
22645;DHT22;11489;50.834;6.752;2022-11-23T08:36:20;8.30;91.80
22645;DHT22;11489;50.834;6.752;2022-11-23T08:38:46;8.40;91.80
22645;DHT22;11489;50.834;6.752;2022-11-23T08:41:11;8.40;91.90
22645;DHT22;11489;50.834;6.752;2022-11-23T08:43:37;8.50;91.90
22645;DHT22;11489;50.834;6.752;2022-11-23T08:46:04;8.60;91.90
22645;DHT22;11489;50.834;6.752;2022-11-23T08:48:30;8.60;91.80
22645;DHT22;11489;50.834;6.752;2022-11-23T08:50:58;8.70;91.70
22645;DHT22;11489;50.834;6.752;2022-11-23T08:53:25;8.80;91.60
22645;DHT22;11489;50.834;6.752;2022-11-23T08:55:50;8.80;91.60
22645;DHT22;11489;50.834;6.752;2022-11-23T08:58:16;8.80;91.50
22645;DHT22;11489;50.834;6.752;2022-11-23T09:00:42;8.90;91.40
22645;DHT22;11489;50.834;6.752;2022-11-23T09:03:07;8.90;91.30
22645;DHT22;11489;50.834;6.752;2022-11-23T09:05:36;8.90;91.20
22645;DHT22;11489;50.834;6.752;2022-11-23T09:08:02;9.00;91.10
22645;DHT22;11489;50.834;6.752;2022-11-23T09:10:27;8.90;91.10
22645;DHT22;11489;50.834;6.752;2022-11-23T09:12:53;9.00;91.30
22645;DHT22;11489;50.834;6.752;2022-11-23T09:15:19;9.00;91.50
22645;DHT22;11489;50.834;6.752;2022-11-23T09:17:45;9.00;91.60
22645;DHT22;11489;50.834;6.752;2022-11-23T09:20:11;9.10;91.80
22645;DHT22;11489;50.834;6.752;2022-11-23T09:22:37;9.20;91.70
22645;DHT22;11489;50.834;6.752;2022-11-23T09:25:03;9.30;91.70
22645;DHT22;11489;50.834;6.752;2022-11-23T09:27:29;9.40;91.70
22645;DHT22;11489;50.834;6.752;2022-11-23T09:29:55;9.40;91.60
22645;DHT22;11489;50.834;6.752;2022-11-23T09:32:20;9.50;91.60
22645;DHT22;11489;50.834;6.752;2022-11-23T09:34:46;9.60;91.50
22645;DHT22;11489;50.834;6.752;2022-11-23T09:37:12;9.70;91.50
22645;DHT22;11489;50.834;6.752;2022-11-23T09:39:38;9.70;91.40
22645;DHT22;11489;50.834;6.752;2022-11-23T09:45:29;9.90;90.60
22645;DHT22;11489;50.834;6.752;2022-11-23T09:48:24;9.90;90.60
22645;DHT22;11489;50.834;6.752;2022-11-23T09:51:03;10.00;90.40
22645;DHT22;11489;50.834;6.752;2022-11-23T09:53:40;10.00;90.60
22645;DHT22;11489;50.834;6.752;2022-11-23T09:58:43;10.10;90.50
22645;DHT22;11489;50.834;6.752;2022-11-23T10:01:13;10.10;90.70
22645;DHT22;11489;50.834;6.752;2022-11-23T10:03:41;10.20;90.50
22645;DHT22;11489;50.834;6.752;2022-11-23T10:06:25;10.10;90.50
22645;DHT22;11489;50.834;6.752;2022-11-23T10:23:25;10.30;90.10
22645;DHT22;11489;50.834;6.752;2022-11-23T10:25:52;10.40;90.50
22645;DHT22;11489;50.834;6.752;2022-11-23T10:28:20;10.40;90.80
22645;DHT22;11489;50.834;6.752;2022-11-23T10:31:00;10.50;91.30
22645;DHT22;11489;50.834;6.752;2022-11-23T10:33:32;10.70;91.70
22645;DHT22;11489;50.834;6.752;2022-11-23T10:36:02;10.90;92.40
22645;DHT22;11489;50.834;6.752;2022-11-23T10:38:27;11.20;92.60
22645;DHT22;11489;50.834;6.752;2022-11-23T10:41:06;11.50;92.70
22645;DHT22;11489;50.834;6.752;2022-11-23T10:44:03;11.80;92.10
22645;DHT22;11489;50.834;6.752;2022-11-23T10:46:38;12.10;91.10
22645;DHT22;11489;50.834;6.752;2022-11-23T10:49:17;12.30;90.90
22645;DHT22;11489;50.834;6.752;2022-11-23T10:51:54;12.60;88.80
22645;DHT22;11489;50.834;6.752;2022-11-23T10:54:27;12.60;88.10
22645;DHT22;11489;50.834;6.752;2022-11-23T10:56:54;12.60;88.70
22645;DHT22;11489;50.834;6.752;2022-11-23T10:59:36;12.60;89.30
22645;DHT22;11489;50.834;6.752;2022-11-23T11:02:17;12.60;88.60
22645;DHT22;11489;50.834;6.752;2022-11-23T11:04:48;12.70;87.10
22645;DHT22;11489;50.834;6.752;2022-11-23T11:07:23;12.70;89.10
22645;DHT22;11489;50.834;6.752;2022-11-23T11:09:53;12.70;88.10
22645;DHT22;11489;50.834;6.752;2022-11-23T11:12:18;12.70;87.40
22645;DHT22;11489;50.834;6.752;2022-11-23T11:14:58;12.60;87.00
22645;DHT22;11489;50.834;6.752;2022-11-23T11:17:30;12.60;85.30
22645;DHT22;11489;50.834;6.752;2022-11-23T11:19:57;12.40;86.30
22645;DHT22;11489;50.834;6.752;2022-11-23T11:22:33;12.30;86.00
22645;DHT22;11489;50.834;6.752;2022-11-23T11:25:04;12.20;84.70
22645;DHT22;11489;50.834;6.752;2022-11-23T11:27:31;12.10;86.10
22645;DHT22;11489;50.834;6.752;2022-11-23T11:30:24;12.00;86.60
22645;DHT22;11489;50.834;6.752;2022-11-23T11:33:39;11.90;84.30
22645;DHT22;11489;50.834;6.752;2022-11-23T11:35:47;11.90;86.90
22645;DHT22;11489;50.834;6.752;2022-11-23T11:38:19;11.90;88.40
22645;DHT22;11489;50.834;6.752;2022-11-23T11:40:49;11.90;89.00
22645;DHT22;11489;50.834;6.752;2022-11-23T11:45:53;12.20;89.00
22645;DHT22;11489;50.834;6.752;2022-11-23T11:48:22;12.30;89.70
22645;DHT22;11489;50.834;6.752;2022-11-23T11:50:52;12.50;89.20
22645;DHT22;11489;50.834;6.752;2022-11-23T11:56:24;12.70;86.30
22645;DHT22;11489;50.834;6.752;2022-11-23T12:01:41;12.60;83.90
22645;DHT22;11489;50.834;6.752;2022-11-23T12:04:26;12.60;85.70
22645;DHT22;11489;50.834;6.752;2022-11-23T12:07:08;12.50;83.80
22645;DHT22;11489;50.834;6.752;2022-11-23T12:09:40;12.40;84.00
22645;DHT22;11489;50.834;6.752;2022-11-23T12:12:25;12.30;84.80
22645;DHT22;11489;50.834;6.752;2022-11-23T12:14:50;12.10;83.20
22645;DHT22;11489;50.834;6.752;2022-11-23T12:22:50;11.80;85.70
22645;DHT22;11489;50.834;6.752;2022-11-23T12:25:43;11.80;84.90
22645;DHT22;11489;50.834;6.752;2022-11-23T12:28:22;11.70;86.00
22645;DHT22;11489;50.834;6.752;2022-11-23T12:36:49;12.00;87.10
22645;DHT22;11489;50.834;6.752;2022-11-23T12:39:32;12.00;87.20
22645;DHT22;11489;50.834;6.752;2022-11-23T12:47:46;12.10;83.40
22645;DHT22;11489;50.834;6.752;2022-11-23T12:50:31;12.10;84.80
22645;DHT22;11489;50.834;6.752;2022-11-23T12:53:30;12.00;84.20
22645;DHT22;11489;50.834;6.752;2022-11-23T12:56:10;12.00;83.50
22645;DHT22;11489;50.834;6.752;2022-11-23T12:58:40;12.00;85.10
22645;DHT22;11489;50.834;6.752;2022-11-23T13:01:16;12.00;86.00
22645;DHT22;11489;50.834;6.752;2022-11-23T13:12:06;12.10;86.10
22645;DHT22;11489;50.834;6.752;2022-11-23T13:14:53;12.10;86.70
22645;DHT22;11489;50.834;6.752;2022-11-23T13:19:57;12.20;86.30
22645;DHT22;11489;50.834;6.752;2022-11-23T13:22:29;12.30;86.20
22645;DHT22;11489;50.834;6.752;2022-11-23T13:30:20;12.30;84.20
22645;DHT22;11489;50.834;6.752;2022-11-23T13:43:11;12.00;83.60
22645;DHT22;11489;50.834;6.752;2022-11-23T13:45:39;11.90;82.00
22645;DHT22;11489;50.834;6.752;2022-11-23T13:48:10;11.80;83.30
22645;DHT22;11489;50.834;6.752;2022-11-23T13:50:39;11.70;83.10
22645;DHT22;11489;50.834;6.752;2022-11-23T13:55:56;11.40;83.30
22645;DHT22;11489;50.834;6.752;2022-11-23T14:00:55;11.20;83.90
22645;DHT22;11489;50.834;6.752;2022-11-23T14:03:49;11.20;84.00
22645;DHT22;11489;50.834;6.752;2022-11-23T14:11:51;11.00;84.10
22645;DHT22;11489;50.834;6.752;2022-11-23T14:14:22;10.90;84.70
22645;DHT22;11489;50.834;6.752;2022-11-23T14:16:59;10.80;84.60
22645;DHT22;11489;50.834;6.752;2022-11-23T14:19:41;10.80;84.90
22645;DHT22;11489;50.834;6.752;2022-11-23T14:22:25;10.80;84.50
22645;DHT22;11489;50.834;6.752;2022-11-23T14:34:26;10.70;84.70
22645;DHT22;11489;50.834;6.752;2022-11-23T14:42:41;10.70;84.50
22645;DHT22;11489;50.834;6.752;2022-11-23T14:45:13;10.60;85.60
22645;DHT22;11489;50.834;6.752;2022-11-23T14:47:39;10.60;85.70
22645;DHT22;11489;50.834;6.752;2022-11-23T14:50:05;10.60;86.10
22645;DHT22;11489;50.834;6.752;2022-11-23T14:52:40;10.60;85.90
22645;DHT22;11489;50.834;6.752;2022-11-23T14:55:06;10.60;85.70
22645;DHT22;11489;50.834;6.752;2022-11-23T14:57:43;10.50;85.60
22645;DHT22;11489;50.834;6.752;2022-11-23T15:02:52;10.50;85.00
22645;DHT22;11489;50.834;6.752;2022-11-23T15:05:24;10.40;85.80
22645;DHT22;11489;50.834;6.752;2022-11-23T15:08:04;10.40;85.70
22645;DHT22;11489;50.834;6.752;2022-11-23T15:10:53;10.40;85.40
22645;DHT22;11489;50.834;6.752;2022-11-23T15:15:50;10.30;85.80
22645;DHT22;11489;50.834;6.752;2022-11-23T15:18:34;10.20;85.70
22645;DHT22;11489;50.834;6.752;2022-11-23T15:23:56;10.10;85.80
22645;DHT22;11489;50.834;6.752;2022-11-23T15:26:27;10.10;85.30
22645;DHT22;11489;50.834;6.752;2022-11-23T15:28:54;10.00;86.20
22645;DHT22;11489;50.834;6.752;2022-11-23T15:31:35;9.90;86.50
22645;DHT22;11489;50.834;6.752;2022-11-23T15:34:13;9.90;86.20
22645;DHT22;11489;50.834;6.752;2022-11-23T15:36:41;9.80;86.60
22645;DHT22;11489;50.834;6.752;2022-11-23T15:39:18;9.70;87.00
22645;DHT22;11489;50.834;6.752;2022-11-23T15:41:44;9.60;87.10
22645;DHT22;11489;50.834;6.752;2022-11-23T15:44:30;9.50;87.40
22645;DHT22;11489;50.834;6.752;2022-11-23T15:47:05;9.40;87.70
22645;DHT22;11489;50.834;6.752;2022-11-23T15:49:36;9.30;87.70
22645;DHT22;11489;50.834;6.752;2022-11-23T15:52:03;9.20;87.90
22645;DHT22;11489;50.834;6.752;2022-11-23T15:54:36;9.10;88.20
22645;DHT22;11489;50.834;6.752;2022-11-23T15:57:06;9.00;88.50
22645;DHT22;11489;50.834;6.752;2022-11-23T16:01:59;8.80;89.20
22645;DHT22;11489;50.834;6.752;2022-11-23T16:04:31;8.80;89.60
22645;DHT22;11489;50.834;6.752;2022-11-23T16:07:19;8.70;89.70
22645;DHT22;11489;50.834;6.752;2022-11-23T16:12:32;8.60;90.00
22645;DHT22;11489;50.834;6.752;2022-11-23T16:17:58;8.40;90.20
22645;DHT22;11489;50.834;6.752;2022-11-23T16:20:24;8.30;90.30
22645;DHT22;11489;50.834;6.752;2022-11-23T16:22:52;8.30;90.40
22645;DHT22;11489;50.834;6.752;2022-11-23T16:25:31;8.20;90.50
22645;DHT22;11489;50.834;6.752;2022-11-23T16:28:01;8.20;90.60
22645;DHT22;11489;50.834;6.752;2022-11-23T16:30:36;8.10;90.70
22645;DHT22;11489;50.834;6.752;2022-11-23T16:33:02;8.10;90.80
22645;DHT22;11489;50.834;6.752;2022-11-23T16:35:28;8.00;90.80
22645;DHT22;11489;50.834;6.752;2022-11-23T16:37:54;8.00;90.90
22645;DHT22;11489;50.834;6.752;2022-11-23T16:40:19;8.00;91.00
22645;DHT22;11489;50.834;6.752;2022-11-23T16:42:50;7.90;91.00
22645;DHT22;11489;50.834;6.752;2022-11-23T16:45:16;7.90;91.10
22645;DHT22;11489;50.834;6.752;2022-11-23T16:48:01;7.90;91.10
22645;DHT22;11489;50.834;6.752;2022-11-23T16:50:32;7.90;91.20
22645;DHT22;11489;50.834;6.752;2022-11-23T16:53:18;7.80;91.30
22645;DHT22;11489;50.834;6.752;2022-11-23T16:55:50;7.90;91.40
22645;DHT22;11489;50.834;6.752;2022-11-23T16:58:17;7.80;91.40
22645;DHT22;11489;50.834;6.752;2022-11-23T17:00:43;7.80;91.40
22645;DHT22;11489;50.834;6.752;2022-11-23T17:03:17;7.80;91.40
22645;DHT22;11489;50.834;6.752;2022-11-23T17:05:43;7.80;91.50
22645;DHT22;11489;50.834;6.752;2022-11-23T17:08:09;7.70;91.50
22645;DHT22;11489;50.834;6.752;2022-11-23T17:10:36;7.80;91.60
22645;DHT22;11489;50.834;6.752;2022-11-23T17:13:03;7.70;91.60
22645;DHT22;11489;50.834;6.752;2022-11-23T17:15:29;7.80;91.70
22645;DHT22;11489;50.834;6.752;2022-11-23T17:17:55;7.70;91.70
22645;DHT22;11489;50.834;6.752;2022-11-23T17:20:21;7.70;91.70
22645;DHT22;11489;50.834;6.752;2022-11-23T17:22:46;7.70;91.80
22645;DHT22;11489;50.834;6.752;2022-11-23T17:25:16;7.70;91.80
22645;DHT22;11489;50.834;6.752;2022-11-23T17:27:42;7.70;91.90
22645;DHT22;11489;50.834;6.752;2022-11-23T17:30:18;7.70;91.90
22645;DHT22;11489;50.834;6.752;2022-11-23T17:32:46;7.70;92.00
22645;DHT22;11489;50.834;6.752;2022-11-23T17:35:12;7.70;92.00
22645;DHT22;11489;50.834;6.752;2022-11-23T17:37:38;7.70;92.00
22645;DHT22;11489;50.834;6.752;2022-11-23T17:40:12;7.70;92.30
22645;DHT22;11489;50.834;6.752;2022-11-23T17:42:37;7.80;92.10
22645;DHT22;11489;50.834;6.752;2022-11-23T17:45:03;7.70;92.00
22645;DHT22;11489;50.834;6.752;2022-11-23T17:47:29;7.70;92.10
22645;DHT22;11489;50.834;6.752;2022-11-23T17:49:55;7.70;92.40
22645;DHT22;11489;50.834;6.752;2022-11-23T17:52:22;7.80;92.10
22645;DHT22;11489;50.834;6.752;2022-11-23T17:54:48;7.80;92.20
22645;DHT22;11489;50.834;6.752;2022-11-23T17:57:15;7.80;92.10
22645;DHT22;11489;50.834;6.752;2022-11-23T17:59:42;7.70;92.10